Brookside, Kentucky
Current Conditions -  °F | °C
As of 5:15 PM on Tuesday 21 Oct 2014 (Local Time) from KI35 Reporting Station
Overcast Overcast  
Wind Chill: 54°   Ceiling: 5000
Heat Index: 54°   Visibility: 10mi
Dew Point: 39°   Wind: 7mph
Humidity: 58%   Direction: 340°NNW
Pressure: 30.04"   Gusts: NA
Location:  36.8576°N, 83.2467°W
Report Text: KI35 212115Z AUTO 34006KT 10SM OVC050 12/04 A3004 RMK AO1
Loading
Personal Weather Stations






























Interactive Weather Map
Tropical Storm Tracking
New forecast layout! Learn more

10-Day Weather Forecast

Advertisements
Track Severe Weather on mobile